createdAt,value
2019-01-02T00:00:55.937Z,76.43
2019-01-02T00:03:25.526Z,76.57
2019-01-02T00:05:56.430Z,76.30
2019-01-02T00:08:25.647Z,76.03
2019-01-02T00:10:54.845Z,75.71
2019-01-02T00:13:24.079Z,75.88
2019-01-02T00:15:53.285Z,75.69
2019-01-02T00:18:24.200Z,75.36
2019-01-02T00:20:53.401Z,75.31
2019-01-02T00:23:24.301Z,75.37
2019-01-02T00:25:53.504Z,75.35
2019-01-02T00:28:23.286Z,75.62
2019-01-02T00:30:53.609Z,75.88
2019-01-02T00:33:22.932Z,75.21
2019-01-02T00:35:52.116Z,75.25
2019-01-02T00:38:21.324Z,75.20
2019-01-02T00:40:52.238Z,74.94
2019-01-02T00:43:21.468Z,75.44
2019-01-02T00:45:52.745Z,74.71
2019-01-02T00:48:21.950Z,71.90
2019-01-02T00:50:51.491Z,71.71
2019-01-02T00:53:20.673Z,70.44
2019-01-02T00:55:51.591Z,69.85
2019-01-02T00:58:20.762Z,68.30
2019-01-02T01:00:51.695Z,67.89
2019-01-02T01:03:20.870Z,66.88
2019-01-02T01:05:51.816Z,66.91
2019-01-02T01:09:00.408Z,66.21
2019-01-02T01:11:29.626Z,66.52
2019-01-02T01:13:59.372Z,67.06
2019-01-02T01:16:28.576Z,66.27
2019-01-02T01:18:57.921Z,66.97
2019-01-02T01:21:27.098Z,67.43
2019-01-02T01:23:56.374Z,68.42
2019-01-02T01:26:25.551Z,67.69
2019-01-02T01:28:54.745Z,67.58
2019-01-02T01:31:23.952Z,66.51
2019-01-02T01:33:53.145Z,66.33
2019-01-02T01:36:24.039Z,65.80
2019-01-02T01:38:53.222Z,65.66
2019-01-02T01:41:22.424Z,65.77
2019-01-02T01:43:53.320Z,65.58
2019-01-02T01:46:22.523Z,64.47
2019-01-02T01:48:53.421Z,63.75
2019-01-02T01:51:22.624Z,63.67
2019-01-02T01:53:51.809Z,63.57
2019-01-02T01:56:22.741Z,63.39
2019-01-02T01:58:51.919Z,63.56
2019-01-02T02:01:21.395Z,63.05
2019-01-02T02:03:52.322Z,62.77
2019-01-02T02:06:21.505Z,62.86
2019-01-02T02:08:50.713Z,61.85
2019-01-02T02:11:19.884Z,62.31
2019-01-02T02:13:49.064Z,63.20
2019-01-02T02:16:20.002Z,63.73
2019-01-02T02:18:49.175Z,63.17
2019-01-02T02:21:18.380Z,63.78
2019-01-02T02:23:49.278Z,64.59
2019-01-02T02:26:18.457Z,64.97
2019-01-02T02:28:49.377Z,65.38
2019-01-02T02:31:18.655Z,65.31
2019-01-02T02:36:44.492Z,66.33
2019-01-02T02:39:15.428Z,66.97
2019-01-02T02:41:46.321Z,65.26
2019-01-02T02:44:17.218Z,64.65
2019-01-02T02:46:48.169Z,64.08
2019-01-02T02:49:17.341Z,64.39
2019-01-02T02:51:46.543Z,65.47
2019-01-02T02:54:17.443Z,65.79
2019-01-02T02:56:48.343Z,65.46
2019-01-02T02:59:19.270Z,66.37
2019-01-02T03:01:50.172Z,66.84
2019-01-02T03:04:21.096Z,66.38
2019-01-02T03:06:53.831Z,66.57
2019-01-02T03:09:23.279Z,65.69
2019-01-02T03:11:52.469Z,66.04
2019-01-02T03:14:21.650Z,66.10
2019-01-02T03:16:52.587Z,65.53
2019-01-02T03:19:23.489Z,65.24
2019-01-02T03:21:54.408Z,65.14
2019-01-02T03:24:25.307Z,65.84
2019-01-02T03:26:54.935Z,67.30
2019-01-02T03:29:24.108Z,68.83
2019-01-02T03:31:55.049Z,70.04
2019-01-02T03:34:25.958Z,70.97
2019-01-02T03:36:55.142Z,71.92
2019-01-02T03:39:32.033Z,72.37
2019-01-02T03:42:01.222Z,71.75
2019-01-02T03:44:30.451Z,71.58
2019-01-02T03:46:59.629Z,71.25
2019-01-02T03:49:28.806Z,70.90
2019-01-02T03:51:58.004Z,70.59
2019-01-02T03:54:27.537Z,70.34
2019-01-02T03:56:56.747Z,69.88
2019-01-02T03:59:25.923Z,69.82
2019-01-02T04:01:55.102Z,69.50
2019-01-02T04:04:24.301Z,68.88
2019-01-02T04:06:53.773Z,69.19
2019-01-02T04:09:22.975Z,69.20
2019-01-02T04:11:52.152Z,68.63
2019-01-02T04:14:21.331Z,66.61
2019-01-02T04:16:50.525Z,67.36
2019-01-02T04:19:19.695Z,69.08
2019-01-02T04:21:48.889Z,70.70
2019-01-02T04:24:37.142Z,71.51
2019-01-02T04:27:06.356Z,72.02
2019-01-02T04:29:35.523Z,71.66
2019-01-02T04:32:04.723Z,71.46
2019-01-02T04:34:33.945Z,70.80
2019-01-02T04:37:03.126Z,70.84
2019-01-02T04:39:32.340Z,69.88
2019-01-02T04:42:01.517Z,67.85
2019-01-02T04:44:30.723Z,67.54
2019-01-02T04:46:59.907Z,67.77
2019-01-02T04:49:29.097Z,67.37
2019-01-02T04:51:58.311Z,67.04
2019-01-02T04:54:27.497Z,66.82
2019-01-02T04:56:56.701Z,67.68
2019-01-02T04:59:25.881Z,68.87
2019-01-02T05:01:55.059Z,69.62
2019-01-02T05:04:24.258Z,70.24
2019-01-02T05:06:53.435Z,71.41
2019-01-02T05:09:22.621Z,71.73
2019-01-02T05:11:51.795Z,71.69
2019-01-02T05:14:20.997Z,71.50
2019-01-02T05:16:50.559Z,70.27
2019-01-02T05:19:19.774Z,69.55
2019-01-02T05:21:48.957Z,69.87
2019-01-02T05:24:19.456Z,69.31
2019-01-02T05:27:08.497Z,69.24
2019-01-02T05:32:27.534Z,68.57
2019-01-02T05:34:56.712Z,68.86
2019-01-02T05:37:25.914Z,68.70
2019-01-02T05:39:55.092Z,68.30
2019-01-02T05:42:24.293Z,68.23
2019-01-02T05:44:53.470Z,67.69
2019-01-02T05:47:22.707Z,67.77
2019-01-02T05:49:51.883Z,67.72
2019-01-02T05:52:21.507Z,67.46
2019-01-02T05:54:50.720Z,66.63
2019-01-02T05:57:20.261Z,66.05
2019-01-02T05:59:49.463Z,66.11
2019-01-02T06:02:18.648Z,66.01
2019-01-02T06:04:48.211Z,65.90
2019-01-02T06:07:17.390Z,66.11
2019-01-02T06:09:46.570Z,66.80
2019-01-02T06:12:16.110Z,67.67
2019-01-02T06:14:45.573Z,68.68
2019-01-02T06:17:15.120Z,69.81
2019-01-02T06:19:44.293Z,71.46
2019-01-02T06:22:13.802Z,72.56
2019-01-02T06:24:43.009Z,73.41
2019-01-02T06:27:12.186Z,73.78
2019-01-02T06:29:41.707Z,73.56
2019-01-02T06:32:10.905Z,73.69
2019-01-02T06:34:40.113Z,73.72
2019-01-02T06:37:09.289Z,73.82
2019-01-02T06:39:38.462Z,73.90
2019-01-02T06:42:07.663Z,73.00
2019-01-02T06:44:36.835Z,72.74
2019-01-02T06:47:06.044Z,72.94
2019-01-02T06:49:35.216Z,72.52
2019-01-02T06:52:04.396Z,72.03
2019-01-02T06:54:33.594Z,71.99
2019-01-02T06:57:02.780Z,72.09
2019-01-02T06:59:31.997Z,71.60
2019-01-02T07:02:01.166Z,71.32
2019-01-02T07:04:30.412Z,71.37
2019-01-02T07:06:59.599Z,70.63
2019-01-02T07:09:28.789Z,70.45
2019-01-02T07:11:58.392Z,70.33
2019-01-02T07:14:27.897Z,69.81
2019-01-02T07:16:58.047Z,69.55
2019-01-02T07:19:28.030Z,69.55
2019-01-02T07:21:57.221Z,69.79
2019-01-02T07:24:26.727Z,69.12
2019-01-02T07:26:55.894Z,69.09
2019-01-02T07:29:25.106Z,69.03
2019-01-02T07:31:54.319Z,68.76
2019-01-02T07:35:01.650Z,68.72
2019-01-02T07:38:08.905Z,68.73
2019-01-02T07:41:16.489Z,68.64
2019-01-02T07:44:23.753Z,68.67
2019-01-02T07:47:31.032Z,68.33
2019-01-02T07:50:38.281Z,68.45
2019-01-02T07:53:40.517Z,68.93
2019-01-02T07:56:48.078Z,68.95
2019-01-02T07:59:55.375Z,68.94
2019-01-02T08:02:53.855Z,70.16
2019-01-02T08:06:01.391Z,71.40
2019-01-02T08:09:08.669Z,71.68
2019-01-02T08:12:16.121Z,71.34
2019-01-02T08:15:23.401Z,71.34
2019-01-02T08:18:30.691Z,71.05
2019-01-02T08:37:42.738Z,70.80
2019-01-02T08:40:54.174Z,70.93
2019-01-02T08:47:57.287Z,72.17
2019-01-02T08:55:01.143Z,71.30
2019-01-02T08:58:08.421Z,71.38
2019-01-02T09:01:13.949Z,71.39
2019-01-02T09:04:08.600Z,71.31
2019-01-02T09:07:04.591Z,70.90
2019-01-02T09:10:11.905Z,70.86
2019-01-02T09:13:19.156Z,69.95
2019-01-02T09:16:26.483Z,69.67
2019-01-02T09:22:36.027Z,70.05
2019-01-02T09:26:02.237Z,70.68
2019-01-02T09:29:09.514Z,71.02
2019-01-02T09:32:03.536Z,71.32
2019-01-02T09:35:10.851Z,72.08
2019-01-02T09:38:18.107Z,72.28
2019-01-02T09:41:25.385Z,71.91
2019-01-02T09:44:32.641Z,72.10
2019-01-02T09:47:39.925Z,71.35
2019-01-02T09:50:33.140Z,71.27
2019-01-02T09:53:40.425Z,71.23
2019-01-02T09:56:47.680Z,71.05
2019-01-02T09:59:54.973Z,70.84
2019-01-02T10:02:53.676Z,70.06
2019-01-02T10:06:01.156Z,69.53
2019-01-02T10:09:08.406Z,69.31
2019-01-02T10:12:15.694Z,68.95
2019-01-02T10:15:22.963Z,68.47
2019-01-02T10:18:30.248Z,68.31
2019-01-02T10:21:37.563Z,68.23
2019-01-02T10:24:44.815Z,67.92
2019-01-02T10:27:52.097Z,67.80
2019-01-02T10:30:59.396Z,68.27
2019-01-02T10:37:32.987Z,66.66
2019-01-02T10:40:40.305Z,67.02
2019-01-02T10:43:47.793Z,67.36
2019-01-02T10:46:55.096Z,67.62
2019-01-02T10:50:02.355Z,67.21
2019-01-02T10:53:09.633Z,66.06
2019-01-02T10:56:16.948Z,66.42
2019-01-02T10:59:24.160Z,66.35
2019-01-02T11:02:32.010Z,65.41
2019-01-02T11:32:00.867Z,64.16
2019-01-02T11:34:53.265Z,65.11
2019-01-02T11:49:48.990Z,65.89
2019-01-02T11:52:18.199Z,65.50
2019-01-02T11:54:47.546Z,65.30
2019-01-02T11:57:16.778Z,64.63
2019-01-02T11:59:46.028Z,64.44
2019-01-02T12:02:15.624Z,64.50
2019-01-02T12:04:44.870Z,64.33
2019-01-02T12:07:14.105Z,64.09
2019-01-02T12:09:43.338Z,62.90
2019-01-02T12:14:47.934Z,63.24
2019-01-02T12:17:17.631Z,63.88
2019-01-02T12:19:46.992Z,64.18
2019-01-02T12:22:16.194Z,63.64
2019-01-02T12:24:45.370Z,63.67
2019-01-02T12:27:14.583Z,63.42
2019-01-02T12:29:43.780Z,62.60
2019-01-02T12:32:12.977Z,62.61
2019-01-02T12:34:42.796Z,63.05
2019-01-02T12:37:12.007Z,62.82
2019-01-02T12:39:41.193Z,62.97
2019-01-02T12:42:22.462Z,63.10
2019-01-02T12:44:41.289Z,62.75
2019-01-02T12:47:10.486Z,63.16
2019-01-02T12:49:39.665Z,63.23
2019-01-02T12:52:08.857Z,63.01
2019-01-02T12:54:38.058Z,62.79
2019-01-02T12:57:07.257Z,61.94
2019-01-02T12:59:36.543Z,62.25
2019-01-02T13:06:11.839Z,62.56
2019-01-02T13:09:19.115Z,62.37
2019-01-02T13:12:26.652Z,64.43
2019-01-02T13:15:33.905Z,69.40
2019-01-02T13:18:26.774Z,70.84
2019-01-02T13:21:34.035Z,71.40
2019-01-02T13:24:25.701Z,72.29
2019-01-02T13:27:17.817Z,73.21
2019-01-02T13:30:21.036Z,74.87
2019-01-02T13:33:28.312Z,75.55
2019-01-02T13:36:30.042Z,75.37
2019-01-02T13:39:44.040Z,73.42
2019-01-02T13:42:51.310Z,72.74
2019-01-02T13:45:58.592Z,72.13
2019-01-02T13:48:51.236Z,70.61
2019-01-02T13:51:33.636Z,68.78
2019-01-02T13:54:02.836Z,67.98
2019-01-02T13:57:13.440Z,67.98
2019-01-02T13:59:42.655Z,67.03
2019-01-02T14:02:11.821Z,66.79
2019-01-02T14:04:44.596Z,66.45
2019-01-02T14:07:13.853Z,66.65
2019-01-02T14:09:43.060Z,66.64
2019-01-02T14:12:12.238Z,66.45
2019-01-02T14:14:41.463Z,66.42
2019-01-02T14:17:10.640Z,66.83
2019-01-02T14:19:39.854Z,66.45
2019-01-02T14:22:28.017Z,66.18
2019-01-02T14:24:57.221Z,65.67
2019-01-02T14:27:26.449Z,65.47
2019-01-02T14:29:55.645Z,65.13
2019-01-02T14:32:24.842Z,64.26
2019-01-02T14:34:54.021Z,64.53
2019-01-02T14:37:23.214Z,63.97
2019-01-02T14:39:52.727Z,63.57
2019-01-02T14:42:21.936Z,63.15
2019-01-02T14:44:51.101Z,63.84
2019-01-02T14:47:20.296Z,63.85
2019-01-02T14:49:49.475Z,63.53
2019-01-02T14:52:18.690Z,62.34
2019-01-02T14:54:48.228Z,62.42
2019-01-02T14:57:17.398Z,62.64
2019-01-02T14:59:46.608Z,62.76
2019-01-02T15:02:15.778Z,61.88
2019-01-02T15:04:44.973Z,62.30
2019-01-02T15:07:14.516Z,62.27
2019-01-02T15:10:23.830Z,62.36
2019-01-02T15:12:52.995Z,62.80
2019-01-02T15:15:22.185Z,63.03
2019-01-02T15:17:51.364Z,62.67
2019-01-02T15:20:20.556Z,61.97
2019-01-02T15:22:49.733Z,62.11
2019-01-02T15:25:18.930Z,62.74
2019-01-02T15:27:48.107Z,63.86
2019-01-02T15:30:17.326Z,65.40
2019-01-02T15:32:46.502Z,66.31
2019-01-02T15:35:15.696Z,66.75
2019-01-02T15:37:44.868Z,65.78
2019-01-02T15:40:14.065Z,65.55
2019-01-02T15:42:43.235Z,65.30
2019-01-02T15:45:12.433Z,65.19
2019-01-02T15:47:41.611Z,65.37
2019-01-02T15:50:11.914Z,64.68
2019-01-02T15:52:41.097Z,64.83
2019-01-02T15:55:10.309Z,63.32
2019-01-02T15:57:39.478Z,61.61
2019-01-02T16:03:07.184Z,61.30
2019-01-02T16:05:36.666Z,60.76
2019-01-02T16:08:05.839Z,60.50
2019-01-02T16:10:35.033Z,63.08
2019-01-02T16:13:04.205Z,64.49
2019-01-02T16:15:33.411Z,66.38
2019-01-02T16:18:02.959Z,65.30
2019-01-02T16:20:32.160Z,65.95
2019-01-02T16:23:01.331Z,64.11
2019-01-02T16:25:30.532Z,63.28
2019-01-02T16:28:00.070Z,64.81
2019-01-02T16:30:29.277Z,64.45
2019-01-02T16:32:58.448Z,64.72
2019-01-02T16:35:27.960Z,64.84
2019-01-02T16:37:57.133Z,64.70
2019-01-02T16:40:26.332Z,64.00
2019-01-02T16:42:55.499Z,62.72
2019-01-02T16:45:24.817Z,62.29
2019-01-02T16:47:53.984Z,63.54
2019-01-02T16:50:23.179Z,62.51
2019-01-02T16:52:52.354Z,62.20
2019-01-02T16:55:21.549Z,62.07
2019-01-02T16:57:50.725Z,61.88
2019-01-02T17:00:19.899Z,62.79
2019-01-02T17:02:49.096Z,61.74
2019-01-02T17:05:18.310Z,61.17
2019-01-02T17:07:47.493Z,61.21
2019-01-02T17:10:16.665Z,61.31
2019-01-02T17:12:46.235Z,60.81
2019-01-02T17:15:15.405Z,61.25
2019-01-02T17:17:44.602Z,60.38
2019-01-02T17:23:22.379Z,59.68
2019-01-02T17:25:51.524Z,59.35
2019-01-02T17:28:20.740Z,59.60
2019-01-02T17:30:49.908Z,59.94
2019-01-02T17:33:19.103Z,59.79
2019-01-02T17:35:48.271Z,59.11
2019-01-02T17:38:17.835Z,58.84
2019-01-02T17:40:47.010Z,59.01
2019-01-02T17:43:16.230Z,58.57
2019-01-02T17:45:45.402Z,58.08
2019-01-02T17:48:14.582Z,57.62
2019-01-02T17:50:44.140Z,57.88
2019-01-02T17:53:13.320Z,57.79
2019-01-02T17:55:42.514Z,58.70
2019-01-02T17:58:11.680Z,57.83
2019-01-02T18:00:41.212Z,58.34
2019-01-02T18:03:10.404Z,57.53
2019-01-02T18:05:39.604Z,57.48
2019-01-02T18:08:08.780Z,57.62
2019-01-02T18:10:37.972Z,57.29
2019-01-02T18:13:07.144Z,57.67
2019-01-02T18:15:36.717Z,57.27
2019-01-02T18:18:05.886Z,57.66
2019-01-02T18:20:35.136Z,57.65
2019-01-02T18:23:04.314Z,57.87
2019-01-02T18:25:33.845Z,58.16
2019-01-02T18:28:03.029Z,58.88
2019-01-02T18:30:32.246Z,58.46
2019-01-02T18:33:01.420Z,58.74
2019-01-02T18:35:30.915Z,58.62
2019-01-02T18:38:00.083Z,59.44
2019-01-02T18:40:29.281Z,59.47
2019-01-02T18:42:58.495Z,60.03
2019-01-02T18:45:27.668Z,60.56
2019-01-02T18:47:56.874Z,60.48
2019-01-02T18:50:26.044Z,60.57
2019-01-02T18:52:55.216Z,61.22
2019-01-02T18:55:24.802Z,61.30
2019-01-02T18:57:54.097Z,61.16
2019-01-02T19:00:23.271Z,60.25
2019-01-02T19:02:52.465Z,60.84
2019-01-02T19:05:21.643Z,60.75
2019-01-02T19:07:50.815Z,61.13
2019-01-02T19:10:39.007Z,60.99
2019-01-02T19:13:08.208Z,61.17
2019-01-02T19:15:37.732Z,60.98
2019-01-02T19:18:06.913Z,60.48
2019-01-02T19:20:36.115Z,60.44
2019-01-02T19:23:05.316Z,60.62
2019-01-02T19:25:34.539Z,60.43
2019-01-02T19:28:03.711Z,60.05
2019-01-02T19:30:32.915Z,61.00
2019-01-02T19:33:02.127Z,59.87
2019-01-02T19:35:31.301Z,60.38
2019-01-02T19:38:00.550Z,59.76
2019-01-02T19:40:30.099Z,60.25
2019-01-02T19:42:59.311Z,59.85
2019-01-02T19:45:28.491Z,58.57
2019-01-02T19:47:57.806Z,59.34
2019-01-02T19:50:26.982Z,58.00
2019-01-02T19:52:56.611Z,57.48
2019-01-02T19:55:26.248Z,57.35
2019-01-02T19:57:55.426Z,56.46
2019-01-02T20:00:24.627Z,55.43
2019-01-02T20:02:53.811Z,55.51
2019-01-02T20:05:23.323Z,54.95
2019-01-02T20:07:52.504Z,54.66
2019-01-02T20:10:21.675Z,54.64
2019-01-02T20:12:51.226Z,54.57
2019-01-02T20:15:20.398Z,55.03
2019-01-02T20:17:49.972Z,54.70
2019-01-02T20:20:19.157Z,54.20
2019-01-02T20:22:48.634Z,53.44
2019-01-02T20:25:17.835Z,53.74
2019-01-02T20:27:47.017Z,53.21
2019-01-02T20:30:17.043Z,54.49
2019-01-02T20:32:46.296Z,55.54
2019-01-02T20:35:15.539Z,55.51
2019-01-02T20:37:45.043Z,56.46
2019-01-02T20:40:14.234Z,57.30
2019-01-02T20:42:43.408Z,57.81
2019-01-02T20:45:12.610Z,58.48
2019-01-02T20:47:47.831Z,59.02
2019-01-02T20:50:12.703Z,58.78
2019-01-02T20:52:41.923Z,59.93
2019-01-02T20:55:11.106Z,59.89
2019-01-02T20:57:40.281Z,59.78
2019-01-02T21:00:11.741Z,59.22
2019-01-02T21:02:40.920Z,59.19
2019-01-02T21:05:10.415Z,58.18
2019-01-02T21:07:39.633Z,57.78
2019-01-02T21:10:09.973Z,57.01
2019-01-02T21:12:39.150Z,57.87
2019-01-02T21:15:09.035Z,57.43
2019-01-02T21:17:38.249Z,57.21
2019-01-02T21:20:47.598Z,57.49
2019-01-02T21:23:16.765Z,57.89
2019-01-02T21:25:45.941Z,58.48
2019-01-02T21:28:15.147Z,58.67
2019-01-02T21:30:44.579Z,59.13
2019-01-02T21:33:14.037Z,59.15
2019-01-02T21:35:43.242Z,59.36
2019-01-02T21:38:12.442Z,59.63
2019-01-02T21:40:41.645Z,59.86
2019-01-02T21:43:29.813Z,60.15
2019-01-02T21:45:59.024Z,58.87
2019-01-02T21:48:28.210Z,59.60
2019-01-02T21:50:57.379Z,59.70
2019-01-02T21:53:26.838Z,59.78
2019-01-02T21:55:56.007Z,59.42
2019-01-02T21:58:26.326Z,59.26
2019-01-02T22:00:56.540Z,59.23
2019-01-02T22:03:26.013Z,58.97
2019-01-02T22:05:55.210Z,58.44
2019-01-02T22:08:24.829Z,58.67
2019-01-02T22:10:54.041Z,58.28
2019-01-02T22:13:23.229Z,58.23
2019-01-02T22:15:52.405Z,58.50
2019-01-02T22:18:21.608Z,58.67
2019-01-02T22:20:50.784Z,58.60
2019-01-02T22:23:20.009Z,58.46
2019-01-02T22:25:49.534Z,58.69
2019-01-02T22:28:18.711Z,59.23
2019-01-02T22:30:48.385Z,59.32
2019-01-02T22:33:17.558Z,58.64
2019-01-02T22:35:46.760Z,58.77
2019-01-02T22:38:15.954Z,58.84
2019-01-02T22:40:45.148Z,58.50
2019-01-02T22:43:14.361Z,58.10
2019-01-02T22:45:43.533Z,57.91
2019-01-02T22:48:12.786Z,57.53
2019-01-02T22:50:41.949Z,57.64
2019-01-02T22:53:30.455Z,57.86
2019-01-02T22:55:59.629Z,57.09
2019-01-02T22:58:28.817Z,57.12
2019-01-02T23:04:12.627Z,57.58
2019-01-02T23:07:00.768Z,58.13
2019-01-02T23:09:48.882Z,57.54
2019-01-02T23:12:37.037Z,57.83
2019-01-02T23:15:25.213Z,57.73
2019-01-02T23:18:13.320Z,57.17
2019-01-02T23:21:01.451Z,56.97
2019-01-02T23:23:49.560Z,56.92
2019-01-02T23:26:37.695Z,56.75
2019-01-02T23:29:25.805Z,56.30
2019-01-02T23:32:13.948Z,56.27
2019-01-02T23:35:02.075Z,56.15
2019-01-02T23:37:50.214Z,56.12
2019-01-02T23:40:38.593Z,56.22
2019-01-02T23:43:26.730Z,56.38
2019-01-02T23:46:14.839Z,55.89
2019-01-02T23:49:03.316Z,55.47
2019-01-02T23:51:51.697Z,55.90
2019-01-02T23:54:39.862Z,55.13
2019-01-02T23:57:27.968Z,55.34
